메인 페이지
METAR-TAF:

METAR-TAF

공항 :

베를린 테겔 국제공항

베를린, 독일

위도: 52-34N, 경도: 013-19E, 고도: 37m

현재 날씨관측

예보는 16분 전, 18:20시(UTC)에 발표되었습니다.
7kt
온도 9°C
습도 66%
기압 1022 hPa
시정 10km 이상
1500m 미만 상공 구름 및 적란운 없음

METAR: EDDT 201820Z 26007KT CAVOK 09/03 Q1022 NOSIG

시각: 19:36 (18:36 UTC)

예보

예보는 1 시간 36분 전, 17:00시(UTC)에 발표되었습니다.
예보 대상 시간: 20일 18시부터 21일 18시까지 (UTC)
서남서7kt
시정 10km 이상
고도 4500ft 상공 구름 많음
전환 중
21일 07시부터 21일 09시까지 (UTC)
12kt
일시적
21일 12시부터 21일 15시까지 (UTC)
15kt, 순간 최대 풍속 25kt

TAF: EDDT 201700Z 2018/2118 24007KT 9999 BKN045 BECMG 2107/2109 27012KT TEMPO 2112/2115 27015G25KT

4,000개 이상의 공항 관측 자료 및 예보 (METAR 및 TAF 보고).

지도상에서 검색 가능한 기상관측소가 노란 점과 빨간 점으로 표시되어 있습니다.

기상관측소 명을 보려면 표시 위로 마우스를 이동하세요.

날씨 관측과 예보를 보려면 클릭하세요.

지도 변경 : 확대하려면 엑스 표시가 있는 녹색 버튼, 축소하려면 빼기 표시가 있는 녹색 버튼, 다음 페이지의 지도를 보려면 녹색 화살표를 클릭하세요.


METAR-TAF: